Time;durP1;ratioP1;P1;durP2;ratioP2;P2;SDS_P1;SDS_P2;PMS_P1;PMS_P2;Temp;Humidity;BMP_temperature;BMP_pressure;BME280_temperature;BME280_humidity;BME280_pressure;Samples;Min_cycle;Max_cycle;Signal;HPM_P1;HPM_P2
2022/08/01 00:03:01;;;;;;;3.53;2.17;;;;;;;23.97;44.69;96703.81;6266730;22;20175;-72
2022/08/01 00:06:21;;;;;;;2.87;2.00;;;;;;;24.04;44.23;96705.72;6265240;22;20656;-73
2022/08/01 00:09:42;;;;;;;2.73;1.70;;;;;;;23.93;44.40;96703.31;6269174;22;20177;-73
2022/08/01 00:13:02;;;;;;;2.23;1.97;;;;;;;24.00;44.33;96701.69;6267263;22;20230;-73
2022/08/01 00:16:23;;;;;;;4.07;2.17;;;;;;;23.96;44.27;96710.09;6269936;22;20165;-73
2022/08/01 00:19:44;;;;;;;2.27;2.07;;;;;;;23.90;44.63;96711.59;6267570;22;20590;-72
2022/08/01 00:23:04;;;;;;;2.50;1.60;;;;;;;23.92;44.60;96709.59;6270397;22;20492;-72
2022/08/01 00:26:25;;;;;;;1.77;1.67;;;;;;;23.87;44.94;96711.06;6272031;22;20197;-73
2022/08/01 00:29:46;;;;;;;3.50;1.97;;;;;;;23.95;44.72;96697.84;6272492;22;20179;-72
2022/08/01 00:33:08;;;;;;;2.33;1.87;;;;;;;23.91;45.19;96697.34;6273151;22;20176;-73
2022/08/01 00:36:29;;;;;;;2.10;1.90;;;;;;;23.80;45.02;96705.56;6279530;22;20259;-73
2022/08/01 00:39:49;;;;;;;2.57;2.37;;;;;;;23.75;45.09;96694.66;6281207;22;20515;-73
2022/08/01 00:43:10;;;;;;;2.20;2.00;;;;;;;23.69;45.62;96695.28;6275805;22;20184;-72
2022/08/01 00:46:31;;;;;;;3.37;2.00;;;;;;;23.80;45.04;96699.47;6274352;22;20673;-72
2022/08/01 00:49:51;;;;;;;3.07;1.83;;;;;;;23.74;45.81;96703.56;6270147;22;20188;-72
2022/08/01 00:53:12;;;;;;;1.87;1.77;;;;;;;23.84;45.17;96699.00;6270502;22;20248;-72
2022/08/01 00:56:32;;;;;;;3.77;1.80;;;;;;;23.87;45.22;96697.81;6271919;22;20617;-73
2022/08/01 00:59:53;;;;;;;2.50;1.70;;;;;;;23.77;45.40;96697.13;6269542;22;20172;-73
2022/08/01 01:03:14;;;;;;;2.17;1.90;;;;;;;23.68;45.30;96690.19;6267426;22;20624;-72
2022/08/01 01:06:19;;;;;;;2.33;1.80;;;;;;;23.71;45.81;96695.97;6266766;22;20197;-72
2022/08/01 01:09:31;;;;;;;2.83;2.10;;;;;;;23.66;45.87;96698.25;6271219;22;20306;-72
2022/08/01 01:12:15;;;;;;;2.93;1.90;;;;;;;23.74;45.60;96694.81;6271546;22;20167;-71
2022/08/01 01:14:59;;;;;;;4.63;2.20;;;;;;;23.66;45.46;96692.97;6269595;22;20624;-72
2022/08/01 01:18:44;;;;;;;2.93;1.83;;;;;;;23.63;45.29;96689.81;6291451;22;20189;-72
2022/08/01 01:21:45;;;;;;;2.53;2.17;;;;;;;23.69;45.59;96697.09;6271342;22;20167;-72
2022/08/01 01:25:24;;;;;;;2.70;2.20;;;;;;;23.61;45.09;96703.19;6270595;22;20693;-73
2022/08/01 01:28:36;;;;;;;2.47;1.80;;;;;;;23.61;45.20;96697.06;6235412;22;20653;-73
2022/08/01 01:32:00;;;;;;;2.20;2.00;;;;;;;23.65;45.09;96696.59;6270111;22;20785;-73
2022/08/01 01:35:20;;;;;;;2.47;2.10;;;;;;;23.66;44.75;96698.25;6271034;22;20165;-72
2022/08/01 01:38:44;;;;;;;3.10;2.20;;;;;;;23.68;44.95;96696.28;6268695;22;20164;-73
2022/08/01 01:42:04;;;;;;;2.40;1.90;;;;;;;23.68;44.22;96690.19;6269737;22;20174;-72
2022/08/01 01:45:25;;;;;;;2.10;1.87;;;;;;;23.68;44.78;96693.63;6269211;22;20174;-72
2022/08/01 01:48:46;;;;;;;2.50;2.30;;;;;;;23.76;45.52;96685.72;6270759;22;20177;-72
2022/08/01 01:52:06;;;;;;;3.33;2.47;;;;;;;23.70;46.15;96688.19;6270892;22;20176;-72
2022/08/01 01:55:27;;;;;;;2.80;2.40;;;;;;;23.63;45.83;96688.00;6270344;22;20178;-73
2022/08/01 01:58:48;;;;;;;2.33;2.13;;;;;;;23.70;44.24;96681.06;6269289;22;20172;-73
2022/08/01 02:02:08;;;;;;;2.57;2.23;;;;;;;23.52;43.81;96680.34;6269983;22;20194;-72
2022/08/01 02:05:29;;;;;;;1.90;1.80;;;;;;;23.40;42.76;96689.53;6268274;22;20190;-73
2022/08/01 02:08:50;;;;;;;1.60;1.43;;;;;;;23.40;41.54;96676.31;6270908;22;20170;-72
2022/08/01 02:12:11;;;;;;;2.60;1.60;;;;;;;23.57;41.04;96678.06;6268905;22;20169;-73
2022/08/01 02:15:51;;;;;;;2.80;1.57;;;;;;;23.57;42.04;96678.06;6267766;22;20201;-72
2022/08/01 02:19:12;;;;;;;3.03;1.83;;;;;;;23.54;41.26;96683.66;6270244;22;20605;-73
2022/08/01 02:22:38;;;;;;;1.93;1.60;;;;;;;23.50;41.61;96692.88;6270635;22;20190;-72
2022/08/01 02:26:07;;;;;;;2.37;2.13;;;;;;;23.42;40.71;96691.03;6267360;22;20176;-72
2022/08/01 02:29:14;;;;;;;1.97;1.83;;;;;;;23.42;39.22;96685.75;6269201;22;20637;-72
2022/08/01 02:32:35;;;;;;;2.27;1.70;;;;;;;23.30;39.13;96675.59;6269437;22;20180;-72
2022/08/01 02:36:01;;;;;;;3.67;1.90;;;;;;;23.23;38.72;96674.53;6270690;22;20169;-73
2022/08/01 02:39:22;;;;;;;2.87;1.67;;;;;;;23.16;38.97;96669.03;6267792;22;20168;-73
2022/08/01 02:42:43;;;;;;;3.20;1.70;;;;;;;23.09;39.26;96675.97;6270365;22;20171;-73
2022/08/01 02:46:04;;;;;;;2.87;1.83;;;;;;;23.14;38.97;96672.84;6269750;22;20234;-72
2022/08/01 02:49:25;;;;;;;2.83;1.87;;;;;;;23.16;38.72;96673.53;6269948;22;20167;-73
2022/08/01 02:52:49;;;;;;;1.80;1.70;;;;;;;23.15;39.06;96674.50;6269757;22;20168;-73
2022/08/01 02:56:10;;;;;;;2.63;1.80;;;;;;;23.05;38.87;96671.97;6269947;22;20519;-73
2022/08/01 02:59:30;;;;;;;3.33;1.60;;;;;;;23.08;38.56;96666.34;6268762;22;20603;-72
2022/08/01 03:02:51;;;;;;;3.10;1.80;;;;;;;23.19;38.63;96671.38;6268952;22;20242;-72
2022/08/01 03:06:12;;;;;;;2.03;1.83;;;;;;;23.17;38.62;96669.88;6270307;22;20167;-72
2022/08/01 03:09:33;;;;;;;4.23;2.03;;;;;;;23.12;38.71;96664.25;6270443;22;20574;-72
2022/08/01 03:12:53;;;;;;;4.63;1.97;;;;;;;23.04;38.62;96664.22;6268837;22;20247;-73
2022/08/01 03:16:14;;;;;;;1.90;1.70;;;;;;;23.07;38.36;96658.59;6265576;22;20172;-72
2022/08/01 03:19:35;;;;;;;3.33;1.77;;;;;;;23.07;38.69;96648.88;6269986;22;20259;-71
2022/08/01 03:22:55;;;;;;;4.50;1.87;;;;;;;23.03;38.74;96647.53;6270177;22;20252;-72
2022/08/01 03:26:16;;;;;;;2.23;1.80;;;;;;;23.13;38.66;96655.34;6269596;22;20172;-72
2022/08/01 03:29:36;;;;;;;2.77;1.97;;;;;;;23.21;38.42;96658.00;6268872;22;20165;-72
2022/08/01 03:32:57;;;;;;;5.03;1.83;;;;;;;23.28;38.21;96656.41;6270123;22;20221;-72
2022/08/01 03:36:18;;;;;;;2.67;2.00;;;;;;;23.25;38.31;96651.44;6269894;22;20172;-72
2022/08/01 03:39:38;;;;;;;3.77;2.00;;;;;;;23.62;37.85;96656.44;6269999;22;20619;-72
2022/08/01 03:42:59;;;;;;;5.30;2.17;;;;;;;23.84;36.80;96647.91;6268603;22;20249;-72
2022/08/01 03:46:19;;;;;;;2.57;1.73;;;;;;;23.90;36.50;96648.09;6268242;22;20718;-72
2022/08/01 03:49:41;;;;;;;2.37;1.73;;;;;;;24.19;36.34;96653.78;6269997;22;20599;-72
2022/08/01 03:53:01;;;;;;;2.57;2.13;;;;;;;24.45;36.52;96650.19;6268430;22;20175;-73
2022/08/01 03:56:22;;;;;;;3.33;2.00;;;;;;;24.71;36.19;96656.16;6268618;22;20177;-72
2022/08/01 13:55:18;;;;;;;4.00;1.70;;;;;;;28.27;34.06;96592.16;6183391;22;20546;-75
2022/08/01 13:57:45;;;;;;;2.10;1.60;;;;;;;28.46;34.31;96588.88;6278173;22;20882;-75
2022/08/01 14:00:12;;;;;;;1.80;1.70;;;;;;;28.69;33.86;96578.81;6173921;22;20166;-75
2022/08/01 14:02:40;;;;;;;1.53;1.43;;;;;;;28.65;32.99;96581.03;6175385;22;20212;-75
2022/08/01 14:05:07;;;;;;;1.57;1.37;;;;;;;28.65;33.81;96582.88;6276820;22;20166;-75
2022/08/01 14:07:36;;;;;;;1.97;1.80;;;;;;;28.39;34.16;96587.97;6279003;22;20287;-74
2022/08/01 14:10:04;;;;;;;2.90;2.07;;;;;;;28.49;33.98;96577.81;6278920;22;20494;-74
2022/08/01 14:12:45;;;;;;;2.07;1.73;;;;;;;28.75;33.26;96578.03;6264967;22;20178;-74
2022/08/01 14:15:13;;;;;;;2.70;1.87;;;;;;;28.80;33.70;96588.94;6253028;22;20198;-74
2022/08/01 14:18:01;;;;;;;1.63;1.50;;;;;;;28.69;33.45;96587.63;6173673;22;20163;-74
2022/08/01 14:20:31;;;;;;;2.57;1.30;;;;;;;28.33;33.94;96586.06;6274977;22;20174;-74
2022/08/01 14:22:59;;;;;;;2.63;1.30;;;;;;;28.22;34.15;96597.22;6174999;22;20182;-74
2022/08/01 14:25:26;;;;;;;3.43;1.37;;;;;;;27.94;35.14;96583.81;6277811;22;20669;-74
2022/08/01 14:28:13;;;;;;;2.23;2.03;;;;;;;27.97;34.92;96586.13;6260250;22;20672;-74
2022/08/01 14:30:42;;;;;;;1.53;1.30;;;;;;;27.93;34.76;96582.16;6173244;22;20167;-73
2022/08/01 14:33:10;;;;;;;2.23;1.40;;;;;;;28.08;34.45;96580.31;6278536;22;20261;-74
2022/08/01 14:35:38;;;;;;;2.90;1.30;;;;;;;28.25;34.17;96571.06;6277496;22;20207;-74
2022/08/01 14:38:25;;;;;;;2.47;1.37;;;;;;;28.35;34.18;96576.03;6276880;22;20163;-74
2022/08/01 14:40:58;;;;;;;1.57;1.47;;;;;;;28.56;34.34;96582.22;6174940;22;20227;-73
2022/08/01 14:43:26;;;;;;;2.03;1.83;;;;;;;28.55;34.15;96585.84;6275913;22;20167;-74
2022/08/01 14:45:59;;;;;;;2.83;1.40;;;;;;;28.38;33.63;96591.66;6175217;22;20163;-74
2022/08/01 14:48:26;;;;;;;3.53;1.50;;;;;;;28.30;34.13;96589.09;6175243;22;20582;-74
2022/08/01 14:50:53;;;;;;;2.93;1.77;;;;;;;28.40;34.18;96590.44;6174965;22;20174;-74
2022/08/01 14:53:20;;;;;;;3.80;1.63;;;;;;;28.57;33.50;96585.69;6175037;22;20268;-74
2022/08/01 14:55:47;;;;;;;1.70;1.60;;;;;;;28.64;33.62;96581.25;6173456;22;20194;-74
2022/08/01 14:58:14;;;;;;;3.00;1.30;;;;;;;28.70;33.74;96594.63;6175680;22;20178;-74
2022/08/01 15:00:41;;;;;;;1.33;1.20;;;;;;;28.24;33.90;96588.03;6173208;22;20171;-74
2022/08/01 15:03:50;;;;;;;1.43;1.30;;;;;;;28.38;34.39;96587.13;6174918;22;20170;-74
2022/08/01 15:07:11;;;;;;;3.37;1.97;;;;;;;28.54;33.95;96591.38;6178805;22;20202;-75
2022/08/01 15:10:31;;;;;;;3.10;1.40;;;;;;;28.73;33.50;96591.56;6177318;22;20472;-75
2022/08/01 15:17:34;;;;;;;2.37;1.40;;;;;;;28.84;33.52;96579.53;6178123;22;20170;-74
2022/08/01 15:20:54;;;;;;;2.50;1.67;;;;;;;28.77;33.80;96587.50;6178779;22;20201;-74
2022/08/01 15:24:15;;;;;;;2.50;1.20;;;;;;;28.77;33.38;96592.81;6276753;22;20530;-74
2022/08/01 15:27:36;;;;;;;3.37;1.50;;;;;;;28.81;33.47;96583.41;6177013;22;20194;-74
2022/08/01 15:30:56;;;;;;;4.67;1.50;;;;;;;28.84;33.31;96591.03;6177603;22;20175;-74
2022/08/01 15:34:17;;;;;;;2.90;1.47;;;;;;;28.66;33.83;96592.53;6178941;22;20171;-74
2022/08/01 15:37:38;;;;;;;2.27;1.60;;;;;;;28.65;33.50;96591.72;6179787;22;20175;-74
2022/08/01 15:41:00;;;;;;;1.97;1.20;;;;;;;28.77;33.93;96592.81;6178505;22;20170;-72
2022/08/01 15:44:21;;;;;;;3.77;1.37;;;;;;;28.87;33.21;96598.63;6274947;22;20626;-74
2022/08/01 15:47:42;;;;;;;2.30;1.60;;;;;;;28.93;33.19;96592.53;6177993;22;20229;-74
2022/08/01 15:51:02;;;;;;;2.90;1.70;;;;;;;29.13;32.95;96590.00;6178565;22;20491;-73
2022/08/01 15:54:23;;;;;;;2.63;1.57;;;;;;;28.93;33.34;96595.19;6178574;22;20606;-75
2022/08/01 15:57:44;;;;;;;2.53;1.37;;;;;;;28.68;33.58;96594.00;6172680;22;20167;-74
2022/08/01 16:01:04;;;;;;;1.63;1.27;;;;;;;28.62;33.63;96597.44;6145820;23;20170;-74
2022/08/01 16:04:25;;;;;;;1.43;1.30;;;;;;;28.54;34.19;96594.84;6174352;23;20174;-73
2022/08/01 16:07:45;;;;;;;3.00;2.60;;;;;;;28.26;34.29;96595.81;6173652;23;20235;-74
2022/08/01 16:11:06;;;;;;;1.33;1.23;;;;;;;28.24;33.76;96605.84;6171690;23;20171;-74
2022/08/01 16:14:27;;;;;;;1.20;1.10;;;;;;;28.21;34.17;96600.91;6171540;23;20167;-72
2022/08/01 16:17:47;;;;;;;1.73;1.30;;;;;;;28.06;34.38;96598.31;6172145;22;20190;-73
2022/08/01 16:21:10;;;;;;;1.90;1.47;;;;;;;27.98;34.77;96611.75;6173388;23;20170;-73
2022/08/01 16:23:38;;;;;;;1.27;1.17;;;;;;;28.03;34.89;96610.16;6173682;23;20167;-74
2022/08/01 16:26:06;;;;;;;2.13;1.27;;;;;;;28.02;34.90;96594.38;6174183;23;20174;-74
2022/08/01 16:28:53;;;;;;;1.60;1.50;;;;;;;28.07;34.60;96610.59;6172910;23;20167;-73
2022/08/01 16:31:20;;;;;;;1.40;1.20;;;;;;;27.94;34.97;96594.47;6173114;22;20163;-73
2022/08/01 16:34:07;;;;;;;3.20;1.20;;;;;;;28.05;35.22;96607.28;6175072;23;20614;-73
2022/08/01 16:36:38;;;;;;;1.37;1.00;;;;;;;28.08;35.10;96601.59;6173987;22;20169;-75
2022/08/01 16:39:06;;;;;;;5.73;1.30;;;;;;;28.02;35.09;96611.19;6147942;22;20198;-74
2022/08/01 16:41:33;;;;;;;2.17;1.87;;;;;;;28.06;34.93;96609.78;6174778;22;20173;-73
2022/08/01 16:44:03;;;;;;;1.20;1.10;;;;;;;27.93;34.96;96611.44;6172779;23;20166;-76
2022/08/01 16:46:32;;;;;;;1.00;1.00;;;;;;;27.86;35.21;96614.00;6174498;23;20301;-72
2022/08/01 16:48:59;;;;;;;2.07;1.47;;;;;;;27.88;35.40;96605.88;6146187;22;20163;-75
2022/08/01 16:51:26;;;;;;;2.23;1.40;;;;;;;27.91;35.61;96600.97;6174336;23;20624;-73
2022/08/01 16:53:59;;;;;;;1.20;1.10;;;;;;;28.03;35.32;96618.13;6173720;22;20676;-75
2022/08/01 16:56:26;;;;;;;1.67;1.37;;;;;;;28.10;35.36;96616.38;6173784;22;20174;-72
2022/08/01 16:58:53;;;;;;;2.63;1.67;;;;;;;28.06;35.21;96624.94;6278091;22;20163;-73
2022/08/01 17:01:23;;;;;;;1.97;1.23;;;;;;;27.90;35.30;96619.81;6174023;22;20193;-70
2022/08/01 17:04:10;;;;;;;1.40;1.20;;;;;;;27.81;35.55;96613.78;6175859;22;20174;-72
2022/08/01 17:06:37;;;;;;;2.50;1.63;;;;;;;27.68;35.88;96624.25;6174075;22;20190;-71
2022/08/01 17:09:04;;;;;;;4.03;1.30;;;;;;;27.80;36.02;96627.28;6279924;22;20175;-72
2022/08/01 17:11:31;;;;;;;2.50;1.40;;;;;;;27.86;35.71;96629.19;6253519;22;20175;-72
2022/08/01 17:13:58;;;;;;;2.53;1.50;;;;;;;27.95;35.75;96628.03;6278959;22;20167;-74
2022/08/01 17:16:25;;;;;;;2.70;1.70;;;;;;;27.93;35.59;96619.41;6175921;22;20171;-73
2022/08/01 17:18:53;;;;;;;2.50;1.30;;;;;;;27.92;35.63;96625.78;6173888;22;20166;-73
2022/08/01 17:21:20;;;;;;;1.67;1.47;;;;;;;27.87;35.68;96623.66;6175334;22;20171;-75
2022/08/01 17:23:47;;;;;;;4.50;1.33;;;;;;;27.94;35.45;96626.41;6277688;22;20653;-73
2022/08/01 17:26:14;;;;;;;3.13;1.70;;;;;;;27.92;35.50;96629.28;6254478;22;20170;-74
2022/08/01 17:28:42;;;;;;;2.73;1.70;;;;;;;27.73;35.75;96623.69;6174674;22;20198;-71
2022/08/01 17:31:09;;;;;;;2.43;1.67;;;;;;;27.75;35.96;96621.66;6174548;22;20232;-74
2022/08/01 17:33:37;;;;;;;2.80;1.60;;;;;;;27.56;36.03;96632.88;6175225;22;20228;-75
2022/08/01 17:36:13;;;;;;;2.50;1.50;;;;;;;27.48;36.31;96625.00;6174297;22;20163;-73
2022/08/01 17:38:40;;;;;;;4.43;1.70;;;;;;;27.61;36.20;96630.50;6278514;22;20705;-74
2022/08/01 17:41:07;;;;;;;2.13;1.43;;;;;;;27.61;35.95;96627.84;6173943;22;20171;-73
2022/08/01 17:43:35;;;;;;;6.33;1.90;;;;;;;27.75;35.61;96643.78;6305389;22;20216;-74
2022/08/01 17:46:02;;;;;;;2.43;1.80;;;;;;;27.73;36.52;96644.97;6304694;22;20162;-71
2022/08/01 17:48:29;;;;;;;1.67;1.47;;;;;;;27.77;36.09;96639.09;6174994;22;20194;-76
2022/08/01 17:50:56;;;;;;;2.33;1.43;;;;;;;27.80;36.18;96648.56;6175599;22;20568;-74
2022/08/01 17:53:23;;;;;;;1.60;1.50;;;;;;;27.80;35.99;96651.22;6173569;22;20627;-75
2022/08/01 17:55:50;;;;;;;4.47;2.50;;;;;;;27.80;36.22;96651.22;6279484;22;20210;-75
2022/08/01 17:58:26;;;;;;;4.20;2.83;;;;;;;27.74;36.32;96662.63;6173751;22;20159;-73
2022/08/01 18:01:15;;;;;;;2.30;1.73;;;;;;;27.38;37.40;96671.34;6175379;22;20163;-73
2022/08/01 18:03:44;;;;;;;2.03;1.20;;;;;;;27.06;37.68;96676.94;6175584;22;20166;-72
2022/08/01 18:06:15;;;;;;;6.50;1.67;;;;;;;27.00;37.78;96668.88;6277550;22;20224;-73
2022/08/01 18:08:45;;;;;;;2.87;1.40;;;;;;;27.03;37.47;96673.84;6279579;22;20206;-72
2022/08/01 18:11:14;;;;;;;3.13;2.17;;;;;;;26.76;38.61;96683.22;6173201;22;20171;-74
2022/08/01 18:13:41;;;;;;;2.50;1.83;;;;;;;26.68;38.87;96680.59;6175589;22;20167;-73
2022/08/01 18:16:11;;;;;;;2.13;1.80;;;;;;;26.57;39.45;96686.31;6174758;22;20618;-74
2022/08/01 18:18:40;;;;;;;3.73;1.70;;;;;;;26.51;39.51;96684.38;6174900;22;20177;-73
2022/08/01 18:21:07;;;;;;;3.07;1.83;;;;;;;26.52;39.72;96694.00;6175730;22;20519;-73
2022/08/01 18:23:35;;;;;;;3.20;2.03;;;;;;;26.59;40.18;96692.28;6174213;22;20177;-74
2022/08/01 18:26:06;;;;;;;2.27;1.70;;;;;;;26.56;39.46;96701.41;6175462;22;20182;-73
2022/08/01 18:28:37;;;;;;;3.70;2.50;;;;;;;26.72;39.87;96697.88;6173714;22;20562;-74
2022/08/01 18:31:15;;;;;;;4.67;1.80;;;;;;;26.56;40.08;96697.97;6271890;22;20253;-73
2022/08/01 18:33:43;;;;;;;4.03;1.50;;;;;;;26.54;39.82;96705.28;6278209;22;20174;-74
2022/08/01 18:36:12;;;;;;;4.67;1.80;;;;;;;26.63;39.90;96709.50;6174309;22;20590;-74
2022/08/01 18:39:03;;;;;;;5.80;1.83;;;;;;;26.62;39.84;96718.50;6281950;22;20177;-74
2022/08/01 18:41:36;;;;;;;4.27;1.97;;;;;;;26.34;40.24;96723.50;6306967;22;20177;-73
2022/08/01 18:44:04;;;;;;;4.93;1.87;;;;;;;26.05;40.94;96720.63;6278931;22;20281;-73
2022/08/01 18:46:39;;;;;;;1.93;1.50;;;;;;;25.91;41.56;96728.47;6174876;22;20652;-75
2022/08/01 18:49:08;;;;;;;1.53;1.17;;;;;;;25.63;41.95;96725.44;6174549;22;20208;-73
2022/08/01 18:51:36;;;;;;;2.70;1.20;;;;;;;25.35;42.72;96727.63;6176002;22;20208;-73
2022/08/01 18:54:10;;;;;;;1.70;1.20;;;;;;;25.29;42.79;96728.31;6173653;22;20280;-74
2022/08/01 18:56:37;;;;;;;3.97;1.20;;;;;;;25.27;42.99;96730.31;6176012;22;20641;-73
2022/08/01 18:59:04;;;;;;;1.77;1.27;;;;;;;25.19;42.88;96727.66;6173939;22;20166;-74
2022/08/01 19:01:32;;;;;;;1.43;1.20;;;;;;;25.04;43.36;96731.97;6175394;22;20174;-73
2022/08/01 19:03:59;;;;;;;2.93;2.20;;;;;;;24.99;42.53;96715.78;6278569;22;20215;-74
2022/08/01 19:06:27;;;;;;;2.97;1.50;;;;;;;25.03;43.11;96740.94;6174577;22;20176;-74
2022/08/01 19:08:54;;;;;;;1.60;1.20;;;;;;;25.01;43.12;96734.97;6277993;22;20198;-72
2022/08/01 19:11:31;;;;;;;15.43;1.83;;;;;;;25.07;42.75;96741.41;6173831;22;20169;-72
2022/08/01 19:13:59;;;;;;;2.93;1.30;;;;;;;25.14;42.65;96743.25;6279205;22;20227;-74
2022/08/01 19:16:27;;;;;;;1.30;1.20;;;;;;;25.07;42.84;96750.22;6173499;22;20627;-73
2022/08/01 19:18:54;;;;;;;3.50;1.60;;;;;;;24.83;43.10;96706.00;6175258;22;20171;-73
2022/08/01 19:21:21;;;;;;;2.03;1.40;;;;;;;25.02;43.12;96742.75;6175333;22;20227;-74
2022/08/01 19:26:34;;;;;;;2.67;1.60;;;;;;;24.98;43.75;96740.59;6175554;22;20636;-72
2022/08/01 19:29:28;;;;;;;2.80;1.50;;;;;;;25.14;43.06;96750.38;6173178;22;20304;-72
2022/08/01 19:32:07;;;;;;;2.70;1.60;;;;;;;25.36;42.59;96747.88;6175252;22;20261;-72
2022/08/01 19:34:46;;;;;;;3.77;1.80;;;;;;;25.46;42.11;96743.22;6175521;22;20231;-72
2022/08/01 19:37:14;;;;;;;1.83;1.70;;;;;;;25.63;42.43;96744.03;6173801;22;20177;-72
2022/08/01 19:39:43;;;;;;;1.80;1.60;;;;;;;25.79;42.10;96758.06;6278673;22;20170;-73
2022/08/01 19:42:11;;;;;;;6.63;2.10;;;;;;;25.81;42.40;96758.72;6173615;22;20173;-72
2022/08/01 19:44:39;;;;;;;2.53;1.93;;;;;;;25.89;41.78;96759.66;6175712;22;20619;-72
2022/08/01 19:47:08;;;;;;;5.27;2.07;;;;;;;25.79;42.28;96758.06;6175897;22;20686;-72
2022/08/01 19:49:35;;;;;;;5.40;2.60;;;;;;;25.84;42.98;96753.06;6176614;22;20164;-72
2022/08/01 19:52:03;;;;;;;4.27;2.10;;;;;;;25.89;42.19;96751.72;6176824;22;20199;-73
2022/08/01 19:54:35;;;;;;;5.60;2.00;;;;;;;25.94;41.84;96754.69;6174290;22;20198;-73
2022/08/01 19:57:05;;;;;;;3.67;2.13;;;;;;;25.88;42.51;96755.38;6175689;22;20166;-73
2022/08/01 19:59:34;;;;;;;2.00;1.80;;;;;;;25.88;42.08;96758.03;6174747;22;20243;-73
2022/08/01 20:02:03;;;;;;;4.20;1.70;;;;;;;25.73;42.58;96748.13;6176576;22;20302;-73
2022/08/01 20:04:32;;;;;;;5.07;2.17;;;;;;;25.71;42.00;96746.66;6289018;22;20166;-74
2022/08/01 20:07:01;;;;;;;3.17;1.60;;;;;;;25.78;42.47;96755.59;6309614;22;20170;-73
2022/08/01 20:09:30;;;;;;;2.00;1.50;;;;;;;25.72;42.48;96745.63;6305072;22;20197;-75
2022/08/01 20:11:57;;;;;;;3.47;2.77;;;;;;;25.70;42.52;96753.78;6173573;22;20173;-75
2022/08/01 20:14:25;;;;;;;2.23;1.50;;;;;;;25.61;43.22;96753.97;6175401;22;20180;-75
2022/08/01 20:16:54;;;;;;;2.40;1.60;;;;;;;25.55;43.34;96755.50;6173432;22;20170;-76
2022/08/01 20:19:25;;;;;;;2.57;1.30;;;;;;;25.65;42.99;96758.78;6175157;22;20174;-74
2022/08/01 20:22:06;;;;;;;4.70;1.80;;;;;;;25.62;43.15;96745.84;6174839;22;20169;-76
2022/08/01 20:24:44;;;;;;;5.57;2.03;;;;;;;25.60;43.42;96747.00;6174382;22;20167;-75
2022/08/01 20:27:14;;;;;;;9.20;1.90;;;;;;;25.68;43.47;96750.47;6175353;22;20173;-75
2022/08/01 20:29:43;;;;;;;4.73;1.80;;;;;;;25.74;43.34;96748.94;6173015;22;20166;-74
2022/08/01 20:32:11;;;;;;;2.23;1.30;;;;;;;25.76;43.14;96755.75;6277855;22;20170;-74
2022/08/01 20:34:39;;;;;;;1.70;1.43;;;;;;;25.73;43.35;96747.31;6175038;22;20167;-76
2022/08/01 20:37:08;;;;;;;4.20;1.50;;;;;;;25.80;42.90;96754.41;6175464;22;20266;-74
2022/08/01 20:39:42;;;;;;;2.57;1.20;;;;;;;25.82;42.41;96752.41;6276210;22;20167;-73
2022/08/01 20:42:11;;;;;;;2.03;1.53;;;;;;;25.85;42.38;96751.25;6174379;22;20256;-76
2022/08/01 20:44:39;;;;;;;3.10;1.80;;;;;;;25.92;42.43;96751.38;6176098;22;20163;-74
2022/08/01 20:47:06;;;;;;;1.30;1.20;;;;;;;25.88;42.29;96755.38;6174242;23;20174;-76
2022/08/01 20:49:35;;;;;;;2.57;1.50;;;;;;;25.91;42.21;96760.34;6175732;22;20247;-76
2022/08/01 20:52:03;;;;;;;2.20;1.20;;;;;;;25.88;42.58;96758.03;6175356;22;20170;-75
2022/08/01 20:54:40;;;;;;;1.57;1.40;;;;;;;25.92;42.10;96756.69;6174574;22;20198;-73
2022/08/01 20:57:26;;;;;;;1.40;1.27;;;;;;;25.88;42.24;96763.34;6175787;22;20174;-75
2022/08/01 20:59:57;;;;;;;1.33;1.20;;;;;;;25.78;42.51;96756.41;6174464;22;20187;-75
2022/08/01 21:02:33;;;;;;;1.77;1.17;;;;;;;25.75;42.42;96756.75;6176353;22;20715;-76
2022/08/01 21:05:11;;;;;;;1.40;1.00;;;;;;;25.58;43.08;96756.94;6175446;22;20167;-73
2022/08/01 21:07:42;;;;;;;1.70;1.17;;;;;;;25.41;43.19;96758.00;6174776;22;20173;-73
2022/08/01 21:10:11;;;;;;;1.20;1.10;;;;;;;25.36;43.52;96760.28;6280098;22;20205;-75
2022/08/01 21:13:00;;;;;;;1.57;1.13;;;;;;;25.35;43.67;96759.44;6174140;22;20672;-73
2022/08/01 21:15:33;;;;;;;1.23;1.10;;;;;;;25.28;43.76;96760.28;6176078;22;20170;-74
2022/08/01 21:18:01;;;;;;;1.17;0.97;;;;;;;25.33;43.57;96757.97;6279408;22;20167;-75
2022/08/01 21:20:33;;;;;;;1.10;1.10;;;;;;;25.31;43.77;96755.47;6175133;22;20165;-74
2022/08/01 21:23:06;;;;;;;1.03;1.00;;;;;;;25.23;43.83;96760.78;6176152;22;20763;-72
2022/08/01 21:25:34;;;;;;;1.57;1.17;;;;;;;25.11;44.61;96743.56;6277561;22;20163;-74
2022/08/01 21:28:03;;;;;;;1.53;1.07;;;;;;;25.10;44.89;96749.84;6175702;22;20587;-74
2022/08/01 21:30:31;;;;;;;1.33;1.20;;;;;;;25.10;45.10;96755.16;6174877;22;20166;-74
2022/08/01 21:33:00;;;;;;;2.73;1.50;;;;;;;25.06;45.19;96748.53;6176101;22;20173;-74
2022/08/01 21:35:27;;;;;;;1.57;1.07;;;;;;;25.12;45.11;96753.19;6175514;23;20231;-73
2022/08/01 21:37:58;;;;;;;1.40;1.30;;;;;;;25.06;45.34;96751.19;6175001;23;20661;-72
2022/08/01 21:40:25;;;;;;;0.93;0.93;;;;;;;25.07;44.71;96744.91;6280362;22;20197;-73
2022/08/01 21:42:53;;;;;;;1.83;1.10;;;;;;;25.10;45.09;96738.47;6174646;22;20165;-74
2022/08/01 21:45:23;;;;;;;1.10;1.10;;;;;;;24.79;45.24;96698.56;6175875;22;20165;-75
2022/08/01 21:47:51;;;;;;;1.30;1.20;;;;;;;25.04;45.03;96745.22;6173414;22;20168;-74
2022/08/01 21:50:19;;;;;;;1.50;1.40;;;;;;;25.08;44.83;96735.16;6175536;22;20722;-73
2022/08/01 21:52:52;;;;;;;2.67;1.40;;;;;;;25.10;45.05;96749.84;6175234;22;20169;-73
2022/08/01 21:55:36;;;;;;;1.33;1.20;;;;;;;25.03;45.57;96743.59;6278095;22;20217;-73
2022/08/01 21:58:22;;;;;;;1.93;1.40;;;;;;;25.11;45.17;96753.34;6266982;22;20495;-73
2022/08/01 22:01:01;;;;;;;1.20;1.10;;;;;;;24.97;45.77;96742.44;6174050;22;20666;-73
2022/08/01 22:03:46;;;;;;;1.57;1.23;;;;;;;24.91;46.00;96740.47;6175218;22;20169;-74
2022/08/01 22:06:15;;;;;;;1.63;1.33;;;;;;;24.88;45.90;96751.38;6175576;22;20180;-73
2022/08/01 22:08:49;;;;;;;1.40;1.30;;;;;;;24.85;46.12;96742.94;6173629;23;20731;-72
2022/08/01 22:11:28;;;;;;;1.30;1.20;;;;;;;24.80;46.31;96753.19;6175352;22;20227;-73
2022/08/01 22:14:00;;;;;;;1.87;1.30;;;;;;;24.77;46.55;96742.94;6173997;22;20173;-73
2022/08/01 22:16:30;;;;;;;1.87;1.30;;;;;;;24.83;46.71;96732.47;6175072;22;20169;-73
2022/08/01 22:18:59;;;;;;;1.50;1.40;;;;;;;24.82;46.59;96740.59;6175452;22;20193;-73
2022/08/01 22:21:26;;;;;;;1.50;1.40;;;;;;;24.91;46.40;96739.63;6173743;22;20177;-73
2022/08/01 22:23:54;;;;;;;1.20;1.10;;;;;;;24.85;45.94;96733.13;6175386;22;20166;-73
2022/08/01 22:26:21;;;;;;;1.40;1.30;;;;;;;24.80;46.45;96729.34;6174166;22;20165;-75
2022/08/01 22:28:55;;;;;;;3.53;1.40;;;;;;;24.89;46.56;96737.13;6175520;22;20196;-73
2022/08/01 22:31:22;;;;;;;1.43;1.27;;;;;;;24.96;46.28;96737.28;6174812;22;20218;-73
2022/08/01 22:33:50;;;;;;;2.10;1.40;;;;;;;24.84;46.34;96730.66;6174941;22;20164;-73
2022/08/01 22:36:18;;;;;;;1.30;1.20;;;;;;;24.90;46.08;96732.66;6305104;22;20174;-73
2022/08/01 22:38:45;;;;;;;2.07;1.60;;;;;;;24.93;46.38;96734.97;6276151;22;20166;-74
2022/08/01 22:41:28;;;;;;;1.40;1.30;;;;;;;24.71;46.81;96735.63;6175421;22;20239;-73
2022/08/01 22:44:23;;;;;;;1.20;1.10;;;;;;;24.56;47.11;96742.53;6174399;22;20632;-74
2022/08/01 22:47:03;;;;;;;1.87;1.10;;;;;;;24.52;46.75;96738.56;6278361;22;20548;-73
2022/08/01 22:49:39;;;;;;;1.70;1.50;;;;;;;24.38;47.44;96733.91;6175351;22;20196;-73
2022/08/01 22:52:11;;;;;;;2.97;1.23;;;;;;;24.44;47.34;96731.41;6174122;22;20176;-74
2022/08/01 22:54:41;;;;;;;1.73;1.40;;;;;;;24.46;47.42;96732.09;6175227;22;20681;-74
2022/08/01 22:57:22;;;;;;;2.63;1.27;;;;;;;24.45;47.30;96727.78;6276450;22;20234;-74
2022/08/01 22:59:59;;;;;;;3.27;1.17;;;;;;;24.40;47.09;96731.94;6174621;22;20197;-74
2022/08/01 23:02:31;;;;;;;1.60;1.30;;;;;;;24.33;46.89;96730.91;6175564;22;20226;-74
2022/08/01 23:05:12;;;;;;;2.30;1.17;;;;;;;24.37;46.70;96729.59;6147436;22;20524;-73
2022/08/01 23:07:48;;;;;;;3.47;1.33;;;;;;;24.37;46.81;96725.13;6175248;22;20169;-74
2022/08/01 23:10:18;;;;;;;1.87;1.20;;;;;;;24.24;46.87;96704.44;6174087;22;20195;-74
2022/08/01 23:12:50;;;;;;;1.90;1.13;;;;;;;24.33;46.89;96722.97;6174750;22;20169;-74